createdAt,value
2022-09-15T00:00:47.112Z,1.88
2022-09-15T00:01:50.879Z,2.35
2022-09-15T00:02:54.492Z,2.05
2022-09-15T00:03:57.978Z,2.04
2022-09-15T00:05:01.581Z,2.03
2022-09-15T00:06:04.542Z,2.05
2022-09-15T00:07:07.732Z,2.01
2022-09-15T00:08:11.230Z,2.08
2022-09-15T00:09:14.312Z,2.06
2022-09-15T00:10:17.505Z,2.42
2022-09-15T00:11:20.775Z,2.04
2022-09-15T00:12:23.850Z,1.67
2022-09-15T00:13:26.747Z,1.92
2022-09-15T00:14:30.423Z,2.07
2022-09-15T00:15:33.604Z,2.24
2022-09-15T00:16:36.931Z,2.46
2022-09-15T00:17:40.484Z,2.03
2022-09-15T00:18:43.251Z,2.11
2022-09-15T00:19:46.128Z,1.95
2022-09-15T00:20:49.510Z,1.90
2022-09-15T00:21:53.212Z,1.75
2022-09-15T00:22:56.499Z,1.82
2022-09-15T00:23:59.884Z,1.63
2022-09-15T00:25:02.661Z,1.34
2022-09-15T00:26:05.324Z,1.42
2022-09-15T00:27:08.391Z,1.73
2022-09-15T00:28:11.271Z,1.44
2022-09-15T00:29:14.145Z,1.71
2022-09-15T00:30:17.229Z,1.32
2022-09-15T00:31:20.063Z,1.45
2022-09-15T00:32:23.587Z,1.78
2022-09-15T00:33:26.570Z,1.70
2022-09-15T00:34:29.649Z,1.75
2022-09-15T00:35:32.516Z,1.35
2022-09-15T00:36:36.134Z,1.85
2022-09-15T00:37:39.409Z,1.56
2022-09-15T00:38:42.284Z,1.40
2022-09-15T00:39:45.598Z,1.51
2022-09-15T00:40:48.945Z,1.39
2022-09-15T00:41:51.812Z,1.19
2022-09-15T00:42:55.099Z,1.38
2022-09-15T00:43:58.183Z,1.39
2022-09-15T00:45:00.949Z,1.40
2022-09-15T00:46:04.036Z,1.19
2022-09-15T00:47:19.193Z,1.31
2022-09-15T00:48:11.419Z,1.71
2022-09-15T00:49:14.493Z,1.58
2022-09-15T00:50:17.580Z,1.44
2022-09-15T00:51:20.552Z,1.47
2022-09-15T00:52:23.527Z,1.33
2022-09-15T00:53:26.922Z,1.63
2022-09-15T00:54:30.201Z,1.48
2022-09-15T00:55:33.485Z,1.50
2022-09-15T00:56:36.769Z,1.37
2022-09-15T00:57:39.856Z,1.30
2022-09-15T00:58:43.154Z,1.31
2022-09-15T00:59:46.326Z,1.55
2022-09-15T01:00:49.629Z,1.44
2022-09-15T01:01:52.762Z,1.54
2022-09-15T01:02:55.661Z,1.72
2022-09-15T01:03:58.529Z,2.06
2022-09-15T01:05:01.326Z,1.65
2022-09-15T01:06:04.276Z,1.97
2022-09-15T01:07:07.570Z,1.84
2022-09-15T01:08:10.848Z,1.86
2022-09-15T01:09:14.143Z,1.67
2022-09-15T01:10:17.724Z,1.45
2022-09-15T01:11:20.696Z,1.46
2022-09-15T01:12:23.888Z,1.81
2022-09-15T01:13:27.068Z,2.02
2022-09-15T01:14:30.558Z,1.76
2022-09-15T01:15:33.852Z,1.79
2022-09-15T01:16:37.186Z,1.66
2022-09-15T01:17:40.724Z,1.74
2022-09-15T01:18:43.906Z,1.75
2022-09-15T01:19:47.295Z,1.64
2022-09-15T01:20:50.294Z,1.63
2022-09-15T01:21:58.148Z,1.77
2022-09-15T01:22:59.797Z,1.88
2022-09-15T01:24:02.882Z,1.82
2022-09-15T01:25:06.172Z,1.81
2022-09-15T01:26:09.246Z,1.68
2022-09-15T01:27:37.706Z,1.83
2022-09-15T01:28:16.929Z,1.67
2022-09-15T01:29:21.755Z,1.62
2022-09-15T01:30:24.635Z,1.61
2022-09-15T01:31:27.709Z,1.90
2022-09-15T01:32:30.786Z,1.75
2022-09-15T01:33:34.189Z,1.68
2022-09-15T01:34:37.483Z,1.62
2022-09-15T01:35:40.539Z,1.68
2022-09-15T01:36:43.723Z,1.58
2022-09-15T01:37:46.807Z,1.72
2022-09-15T01:38:50.095Z,1.84
2022-09-15T01:39:53.154Z,1.87
2022-09-15T01:40:56.043Z,1.86
2022-09-15T01:41:59.031Z,1.72
2022-09-15T01:43:01.888Z,1.76
2022-09-15T01:44:04.760Z,1.59
2022-09-15T01:45:07.650Z,1.73
2022-09-15T01:46:10.687Z,1.78
2022-09-15T01:47:13.704Z,1.75
2022-09-15T01:48:16.777Z,1.55
2022-09-15T01:49:19.862Z,1.74
2022-09-15T01:50:22.830Z,1.76
2022-09-15T01:51:25.812Z,1.85
2022-09-15T01:52:28.583Z,1.92
2022-09-15T01:53:31.471Z,1.71
2022-09-15T01:54:34.942Z,1.75
2022-09-15T01:55:38.029Z,1.72
2022-09-15T01:56:41.524Z,1.94
2022-09-15T01:57:44.703Z,1.79
2022-09-15T01:58:48.085Z,1.75
2022-09-15T01:59:51.269Z,1.86
2022-09-15T02:00:55.144Z,1.72
2022-09-15T02:01:58.274Z,1.65
2022-09-15T02:03:01.553Z,2.04
2022-09-15T02:04:04.724Z,1.98
2022-09-15T02:05:07.796Z,2.12
2022-09-15T02:06:10.870Z,1.77
2022-09-15T02:07:14.684Z,2.05
2022-09-15T02:08:17.962Z,1.79
2022-09-15T02:09:21.031Z,1.82
2022-09-15T02:10:24.410Z,2.18
2022-09-15T02:11:27.905Z,1.69
2022-09-15T02:12:31.189Z,1.72
2022-09-15T02:13:34.269Z,1.75
2022-09-15T02:14:37.350Z,1.64
2022-09-15T02:15:40.729Z,1.60
2022-09-15T02:16:43.884Z,1.74
2022-09-15T02:17:46.582Z,1.72
2022-09-15T02:18:49.580Z,1.69
2022-09-15T02:19:52.549Z,1.79
2022-09-15T02:20:55.835Z,1.72
2022-09-15T02:21:58.927Z,1.65
2022-09-15T02:23:02.218Z,1.70
2022-09-15T02:24:05.369Z,1.60
2022-09-15T02:25:08.342Z,2.34
2022-09-15T02:26:11.729Z,1.84
2022-09-15T02:27:14.924Z,1.67
2022-09-15T02:28:18.096Z,1.72
2022-09-15T02:29:21.182Z,1.85
2022-09-15T02:30:24.677Z,2.03
2022-09-15T02:31:27.941Z,1.64
2022-09-15T02:32:31.170Z,1.76
2022-09-15T02:33:34.212Z,1.78
2022-09-15T02:34:37.490Z,1.85
2022-09-15T02:35:40.670Z,1.63
2022-09-15T02:36:43.976Z,1.83
2022-09-15T02:37:47.648Z,1.71
2022-09-15T02:38:50.976Z,1.88
2022-09-15T02:39:55.215Z,1.78
2022-09-15T02:40:59.970Z,1.63
2022-09-15T02:42:02.941Z,1.64
2022-09-15T02:43:06.853Z,1.95
2022-09-15T02:44:10.027Z,1.81
2022-09-15T02:45:13.006Z,1.82
2022-09-15T02:46:16.400Z,1.68
2022-09-15T02:47:19.988Z,1.55
2022-09-15T02:48:23.260Z,1.81
2022-09-15T02:49:26.442Z,1.78
2022-09-15T02:50:29.837Z,1.75
2022-09-15T02:51:33.009Z,1.94
2022-09-15T02:52:35.987Z,2.00
2022-09-15T02:53:39.069Z,2.01
2022-09-15T02:54:42.165Z,1.83
2022-09-15T02:55:45.339Z,1.81
2022-09-15T02:56:48.714Z,1.88
2022-09-15T02:57:51.795Z,1.87
2022-09-15T02:58:54.569Z,1.98
2022-09-15T02:59:57.646Z,2.00
2022-09-15T03:01:01.236Z,2.13
2022-09-15T03:02:04.065Z,2.68
2022-09-15T03:03:06.986Z,2.36
2022-09-15T03:04:09.653Z,1.82
2022-09-15T03:05:12.533Z,2.10
2022-09-15T03:06:15.818Z,2.18
2022-09-15T03:07:18.786Z,2.00
2022-09-15T03:08:21.670Z,2.14
2022-09-15T03:09:24.865Z,1.94
2022-09-15T03:10:27.720Z,3.18
2022-09-15T03:11:30.489Z,3.27
2022-09-15T03:12:33.674Z,2.38
2022-09-15T03:13:36.560Z,1.85
2022-09-15T03:14:39.939Z,1.81
2022-09-15T03:15:43.024Z,1.68
2022-09-15T03:16:46.282Z,1.62
2022-09-15T03:17:49.174Z,1.64
2022-09-15T03:18:52.049Z,1.91
2022-09-15T03:19:54.714Z,1.88
2022-09-15T03:20:57.694Z,2.45
2022-09-15T03:22:00.571Z,2.29
2022-09-15T03:23:03.237Z,2.00
2022-09-15T03:24:06.123Z,2.02
2022-09-15T03:25:09.304Z,1.84
2022-09-15T03:26:12.182Z,1.85
2022-09-15T03:27:15.559Z,1.75
2022-09-15T03:28:18.224Z,1.62
2022-09-15T03:29:21.207Z,1.77
2022-09-15T03:30:23.977Z,1.70
2022-09-15T03:31:27.140Z,1.85
2022-09-15T03:32:30.149Z,1.96
2022-09-15T03:33:33.131Z,2.05
2022-09-15T03:34:36.098Z,2.81
2022-09-15T03:35:39.483Z,3.43
2022-09-15T03:36:42.653Z,2.69
2022-09-15T03:37:45.941Z,3.29
2022-09-15T03:38:49.637Z,3.15
2022-09-15T03:39:53.075Z,3.12
2022-09-15T03:40:56.420Z,1.91
2022-09-15T03:41:59.486Z,1.91
2022-09-15T03:43:02.368Z,2.17
2022-09-15T03:44:05.344Z,1.65
2022-09-15T03:45:08.326Z,1.65
2022-09-15T03:46:11.679Z,1.74
2022-09-15T03:47:14.794Z,1.84
2022-09-15T03:48:17.658Z,1.68
2022-09-15T03:49:21.050Z,1.72
2022-09-15T03:50:24.225Z,1.94
2022-09-15T03:51:27.827Z,2.56
2022-09-15T03:52:31.212Z,2.73
2022-09-15T03:53:34.087Z,2.61
2022-09-15T03:54:36.870Z,3.24
2022-09-15T03:55:39.944Z,2.15
2022-09-15T03:56:43.125Z,2.91
2022-09-15T03:57:46.195Z,2.56
2022-09-15T03:58:49.385Z,2.05
2022-09-15T03:59:54.933Z,1.94
2022-09-15T04:00:57.875Z,2.36
2022-09-15T04:02:00.742Z,2.42
2022-09-15T04:03:03.840Z,2.77
2022-09-15T04:04:07.227Z,3.05
2022-09-15T04:05:09.999Z,3.45
2022-09-15T04:06:13.289Z,2.96
2022-09-15T04:07:16.607Z,2.29
2022-09-15T04:08:19.868Z,3.39
2022-09-15T04:09:22.947Z,3.85
2022-09-15T04:10:25.810Z,4.95
2022-09-15T04:11:28.790Z,5.19
2022-09-15T04:12:31.665Z,3.91
2022-09-15T04:13:34.842Z,2.37
2022-09-15T04:14:37.922Z,2.32
2022-09-15T04:15:40.615Z,2.91
2022-09-15T04:16:43.975Z,3.55
2022-09-15T04:17:47.064Z,2.33
2022-09-15T04:18:51.567Z,2.45
2022-09-15T04:19:54.660Z,2.72
2022-09-15T04:20:57.944Z,3.25
2022-09-15T04:22:03.166Z,2.84
2022-09-15T04:23:09.740Z,2.33
2022-09-15T04:24:13.323Z,2.59
2022-09-15T04:25:16.604Z,4.34
2022-09-15T04:26:19.794Z,7.84
2022-09-15T04:27:22.867Z,4.61
2022-09-15T04:28:25.957Z,4.15
2022-09-15T04:29:29.745Z,4.52
2022-09-15T04:30:33.332Z,3.88
2022-09-15T04:31:37.088Z,3.98
2022-09-15T04:32:40.609Z,4.26
2022-09-15T04:33:44.320Z,3.40
2022-09-15T04:34:48.935Z,3.38
2022-09-15T04:35:52.927Z,2.69
2022-09-15T04:36:56.311Z,2.40
2022-09-15T04:37:59.389Z,3.17
2022-09-15T04:39:02.566Z,6.02
2022-09-15T04:40:05.604Z,5.74
2022-09-15T04:41:11.376Z,3.97
2022-09-15T04:42:14.267Z,3.61
2022-09-15T04:43:17.975Z,3.09
2022-09-15T04:44:20.943Z,2.81
2022-09-15T04:45:24.423Z,2.57
2022-09-15T04:46:28.064Z,2.60
2022-09-15T04:47:30.791Z,2.91
2022-09-15T04:48:33.786Z,3.25
2022-09-15T04:49:36.968Z,3.72
2022-09-15T04:50:40.338Z,5.15
2022-09-15T04:51:43.619Z,4.56
2022-09-15T04:52:47.007Z,3.18
2022-09-15T04:53:49.889Z,2.66
2022-09-15T04:54:53.493Z,3.62
2022-09-15T04:55:56.758Z,4.68
2022-09-15T04:56:59.647Z,4.75
2022-09-15T04:58:02.509Z,3.75
2022-09-15T04:59:05.273Z,3.04
2022-09-15T05:00:08.375Z,2.99
2022-09-15T05:01:11.512Z,2.80
2022-09-15T05:02:14.802Z,3.01
2022-09-15T05:03:17.704Z,3.35
2022-09-15T05:04:20.475Z,3.52
2022-09-15T05:05:23.448Z,3.28
2022-09-15T05:06:26.427Z,3.17
2022-09-15T05:07:29.712Z,3.08
2022-09-15T05:08:32.790Z,3.28
2022-09-15T05:09:35.869Z,3.38
2022-09-15T05:10:38.841Z,2.95
2022-09-15T05:11:42.027Z,2.94
2022-09-15T05:12:45.112Z,3.12
2022-09-15T05:13:52.442Z,2.62
2022-09-15T05:15:00.167Z,2.96
2022-09-15T05:16:03.020Z,3.10
2022-09-15T05:17:05.723Z,2.98
2022-09-15T05:18:11.772Z,3.00
2022-09-15T05:19:14.748Z,3.57
2022-09-15T05:20:17.928Z,3.52
2022-09-15T05:21:21.739Z,3.06
2022-09-15T05:22:25.110Z,3.14
2022-09-15T05:23:28.192Z,3.22
2022-09-15T05:24:31.381Z,3.38
2022-09-15T05:25:35.199Z,3.68
2022-09-15T05:26:38.771Z,3.26
2022-09-15T05:27:41.839Z,2.92
2022-09-15T05:28:46.504Z,3.19
2022-09-15T05:29:49.228Z,3.01
2022-09-15T05:30:52.029Z,3.38
2022-09-15T05:31:55.431Z,2.94
2022-09-15T05:33:07.650Z,2.91
2022-09-15T05:34:11.068Z,3.26
2022-09-15T05:35:14.140Z,3.29
2022-09-15T05:36:17.648Z,3.45
2022-09-15T05:37:20.930Z,3.49
2022-09-15T05:38:30.964Z,3.24
2022-09-15T05:39:34.357Z,3.17
2022-09-15T05:40:37.423Z,3.35
2022-09-15T05:41:41.650Z,3.48
2022-09-15T05:42:44.911Z,3.77
2022-09-15T05:43:49.039Z,3.28
2022-09-15T05:44:54.487Z,3.58
2022-09-15T05:45:57.653Z,3.89
2022-09-15T05:47:00.899Z,3.93
2022-09-15T05:48:03.926Z,3.51
2022-09-15T05:49:06.994Z,3.42
2022-09-15T05:50:11.382Z,3.60
2022-09-15T05:51:14.600Z,3.79
2022-09-15T05:52:18.271Z,3.64
2022-09-15T05:53:21.753Z,3.38
2022-09-15T05:54:29.452Z,3.44
2022-09-15T05:55:33.284Z,3.38
2022-09-15T05:56:43.615Z,3.45
2022-09-15T05:57:47.303Z,3.33
2022-09-15T05:58:50.565Z,3.36
2022-09-15T05:59:53.753Z,3.71
2022-09-15T06:00:56.827Z,3.75
2022-09-15T06:01:59.942Z,3.69
2022-09-15T06:03:03.131Z,3.63
2022-09-15T06:04:06.274Z,3.18
2022-09-15T06:05:09.456Z,3.36
2022-09-15T06:06:13.580Z,4.05
2022-09-15T06:07:20.312Z,3.63
2022-09-15T06:08:23.614Z,4.04
2022-09-15T06:09:34.734Z,4.15
2022-09-15T06:10:38.236Z,4.53
2022-09-15T06:11:47.405Z,4.35
2022-09-15T06:12:56.524Z,4.61
2022-09-15T06:13:59.487Z,5.11
2022-09-15T06:15:02.872Z,4.92
2022-09-15T06:16:06.564Z,5.08
2022-09-15T06:17:09.300Z,5.23
2022-09-15T06:18:13.841Z,5.57
2022-09-15T06:19:16.674Z,5.34
2022-09-15T06:20:19.703Z,5.22
2022-09-15T06:21:23.721Z,5.36
2022-09-15T06:22:27.603Z,5.01
2022-09-15T06:23:50.635Z,4.88
2022-09-15T06:24:58.020Z,5.01
2022-09-15T06:26:01.261Z,5.32
2022-09-15T06:27:03.938Z,5.14
2022-09-15T06:28:23.039Z,5.45
2022-09-15T06:29:27.651Z,5.30
2022-09-15T06:30:31.466Z,5.39
2022-09-15T06:31:36.180Z,5.32
2022-09-15T06:32:39.566Z,5.18
2022-09-15T06:33:43.155Z,5.25
2022-09-15T06:34:46.361Z,5.10
2022-09-15T06:35:49.525Z,5.66
2022-09-15T06:36:57.809Z,5.28
2022-09-15T06:38:01.515Z,4.82
2022-09-15T06:39:04.818Z,4.88
2022-09-15T06:40:07.595Z,5.13
2022-09-15T06:41:11.455Z,5.30
2022-09-15T06:42:17.830Z,5.13
2022-09-15T06:43:20.880Z,4.99
2022-09-15T06:44:24.502Z,5.05
2022-09-15T06:45:29.503Z,5.05
2022-09-15T06:46:33.179Z,5.00
2022-09-15T06:47:35.987Z,5.22
2022-09-15T06:48:39.259Z,5.12
2022-09-15T06:49:42.631Z,5.01
2022-09-15T06:50:45.868Z,5.55
2022-09-15T06:51:49.521Z,4.76
2022-09-15T06:52:52.712Z,4.87
2022-09-15T06:53:56.185Z,5.15
2022-09-15T06:55:00.207Z,5.24
2022-09-15T06:56:05.541Z,5.23
2022-09-15T06:57:10.242Z,5.45
2022-09-15T06:58:13.531Z,5.59
2022-09-15T06:59:16.823Z,6.08
2022-09-15T07:00:20.110Z,5.84
2022-09-15T07:01:22.868Z,5.60
2022-09-15T07:02:28.333Z,5.63
2022-09-15T07:03:34.331Z,5.59
2022-09-15T07:04:38.153Z,5.88
2022-09-15T07:07:01.695Z,5.64
2022-09-15T07:08:04.691Z,5.84
2022-09-15T07:09:08.010Z,5.36
2022-09-15T07:10:17.855Z,5.53
2022-09-15T07:11:21.516Z,5.93
2022-09-15T07:12:24.690Z,6.00
2022-09-15T07:13:27.764Z,6.18
2022-09-15T07:14:30.762Z,5.88
2022-09-15T07:15:35.069Z,6.87
2022-09-15T07:16:45.950Z,6.44
2022-09-15T07:17:49.615Z,6.37
2022-09-15T07:18:52.527Z,6.39
2022-09-15T07:20:00.794Z,6.72
2022-09-15T07:21:04.380Z,6.77
2022-09-15T07:22:07.271Z,6.85
2022-09-15T07:23:11.486Z,6.58
2022-09-15T07:24:17.431Z,6.56
2022-09-15T07:25:20.804Z,6.84
2022-09-15T07:26:26.073Z,6.66
2022-09-15T07:27:29.735Z,6.43
2022-09-15T07:28:32.730Z,6.68
2022-09-15T07:29:37.938Z,6.20
2022-09-15T07:30:41.633Z,6.48
2022-09-15T07:31:48.490Z,6.79
2022-09-15T07:32:53.128Z,6.32
2022-09-15T07:33:56.799Z,6.83
2022-09-15T07:35:01.017Z,6.87
2022-09-15T07:36:03.994Z,6.30
2022-09-15T07:37:07.373Z,6.24
2022-09-15T07:38:14.550Z,5.84
2022-09-15T07:39:18.133Z,6.30
2022-09-15T07:41:41.400Z,6.66
2022-09-15T07:44:05.187Z,7.19
2022-09-15T07:45:12.851Z,6.45
2022-09-15T07:46:16.149Z,6.81
2022-09-15T07:47:27.857Z,6.85
2022-09-15T07:48:31.719Z,6.84
2022-09-15T07:49:41.966Z,6.99
2022-09-15T07:50:48.013Z,7.13
2022-09-15T07:51:51.285Z,6.84
2022-09-15T07:52:54.205Z,7.28
2022-09-15T07:53:57.666Z,7.38
2022-09-15T07:55:00.844Z,7.27
2022-09-15T07:56:03.718Z,7.84
2022-09-15T07:57:07.400Z,7.92
2022-09-15T07:58:10.376Z,8.07
2022-09-15T07:59:13.647Z,7.86
2022-09-15T08:00:16.461Z,7.63
2022-09-15T08:01:19.455Z,7.67
2022-09-15T08:02:22.483Z,7.95
2022-09-15T08:03:26.011Z,7.92
2022-09-15T08:04:30.299Z,7.56
2022-09-15T08:05:38.142Z,7.20
2022-09-15T08:06:38.505Z,7.88
2022-09-15T08:07:41.589Z,8.22
2022-09-15T08:08:44.658Z,8.40
2022-09-15T08:09:48.461Z,9.13
2022-09-15T08:10:51.945Z,9.36
2022-09-15T08:11:55.024Z,8.75
2022-09-15T08:12:57.912Z,9.23
2022-09-15T08:14:00.778Z,8.24
2022-09-15T08:15:03.657Z,8.36
2022-09-15T08:16:06.531Z,8.32
2022-09-15T08:17:11.514Z,8.90
2022-09-15T08:18:13.706Z,7.87
2022-09-15T08:19:16.588Z,7.67
2022-09-15T08:20:19.552Z,7.97
2022-09-15T08:21:22.656Z,8.39
2022-09-15T08:22:25.722Z,8.45
2022-09-15T08:23:28.800Z,8.95
2022-09-15T08:24:32.289Z,9.15
2022-09-15T08:25:35.566Z,9.12
2022-09-15T08:26:38.334Z,8.72
2022-09-15T08:27:41.215Z,9.22
2022-09-15T08:28:44.105Z,9.56
2022-09-15T08:29:46.758Z,9.11
2022-09-15T08:30:49.659Z,8.99
2022-09-15T08:31:52.411Z,10.25
2022-09-15T08:32:55.105Z,9.31
2022-09-15T08:33:58.259Z,9.45
2022-09-15T08:35:01.432Z,9.05
2022-09-15T08:36:04.211Z,9.35
2022-09-15T08:37:07.203Z,8.95
2022-09-15T08:38:12.008Z,9.66
2022-09-15T08:39:15.199Z,9.56
2022-09-15T08:40:18.976Z,10.83
2022-09-15T08:41:22.514Z,11.86
2022-09-15T08:42:25.661Z,11.44
2022-09-15T08:43:29.257Z,11.41
2022-09-15T08:44:32.772Z,11.06
2022-09-15T08:45:35.828Z,9.78
2022-09-15T08:46:39.391Z,9.76
2022-09-15T08:47:42.186Z,9.81
2022-09-15T08:48:45.366Z,10.21
2022-09-15T08:49:54.858Z,10.73
2022-09-15T08:50:57.771Z,9.94
2022-09-15T08:52:00.749Z,9.94
2022-09-15T08:53:03.728Z,10.25
2022-09-15T08:54:06.386Z,10.65
2022-09-15T08:55:09.271Z,10.55
2022-09-15T08:56:12.248Z,10.66
2022-09-15T08:57:15.322Z,11.42
2022-09-15T08:58:18.607Z,9.99
2022-09-15T08:59:21.583Z,11.59
2022-09-15T09:00:24.657Z,10.48
2022-09-15T09:01:27.707Z,10.39
2022-09-15T09:02:30.741Z,10.84
2022-09-15T09:03:33.591Z,10.58
2022-09-15T09:04:36.588Z,11.60
2022-09-15T09:05:39.546Z,11.38
2022-09-15T09:06:42.524Z,11.03
2022-09-15T09:07:45.603Z,10.26
2022-09-15T09:08:48.373Z,10.56
2022-09-15T09:09:51.452Z,12.64
2022-09-15T09:10:54.445Z,11.87
2022-09-15T09:11:57.204Z,10.49
2022-09-15T09:13:00.496Z,11.41
2022-09-15T09:14:03.469Z,11.46
2022-09-15T09:15:06.337Z,12.57
2022-09-15T09:16:09.414Z,10.96
2022-09-15T09:17:12.193Z,11.08
2022-09-15T09:18:16.397Z,11.97
2022-09-15T09:19:20.422Z,10.37
2022-09-15T09:20:23.287Z,10.91
2022-09-15T09:21:26.154Z,11.81
2022-09-15T09:22:29.330Z,11.75
2022-09-15T09:23:31.999Z,12.22
2022-09-15T09:24:34.992Z,13.03
2022-09-15T09:25:38.059Z,12.70
2022-09-15T09:26:41.238Z,12.68
2022-09-15T09:27:44.218Z,12.58
2022-09-15T09:28:47.500Z,13.43
2022-09-15T09:29:50.581Z,12.62
2022-09-15T09:30:53.802Z,13.42
2022-09-15T09:31:56.743Z,13.23
2022-09-15T09:33:00.021Z,13.42
2022-09-15T09:34:03.096Z,13.67
2022-09-15T09:35:06.078Z,13.54
2022-09-15T09:36:09.277Z,12.79
2022-09-15T09:37:12.340Z,12.58
2022-09-15T09:38:15.720Z,10.83
2022-09-15T09:39:19.016Z,11.38
2022-09-15T09:40:22.791Z,11.75
2022-09-15T09:41:26.091Z,12.14
2022-09-15T09:42:29.270Z,12.12
2022-09-15T09:43:32.766Z,12.88
2022-09-15T09:44:35.637Z,11.91
2022-09-15T09:45:38.714Z,11.62
2022-09-15T09:46:41.589Z,11.98
2022-09-15T09:47:44.262Z,11.15
2022-09-15T09:48:47.029Z,10.65
2022-09-15T09:49:49.808Z,10.27
2022-09-15T09:50:52.574Z,10.66
2022-09-15T09:51:55.965Z,10.54
2022-09-15T09:52:58.836Z,10.63
2022-09-15T09:54:02.128Z,11.56
2022-09-15T09:55:04.904Z,11.84
2022-09-15T09:56:07.664Z,11.68
2022-09-15T09:57:10.854Z,12.05
2022-09-15T09:58:13.825Z,11.64
2022-09-15T09:59:19.839Z,10.75
2022-09-15T10:00:23.261Z,10.64
2022-09-15T10:01:26.679Z,10.15
2022-09-15T10:02:29.524Z,8.89
2022-09-15T10:03:33.122Z,9.90
2022-09-15T10:04:35.816Z,10.15
2022-09-15T10:05:38.668Z,10.47
2022-09-15T10:06:41.323Z,10.80
2022-09-15T10:07:45.825Z,9.73
2022-09-15T10:08:48.611Z,9.35
2022-09-15T10:09:51.801Z,9.95
2022-09-15T10:10:54.879Z,10.10
2022-09-15T10:11:57.747Z,10.05
2022-09-15T10:13:00.517Z,10.35
2022-09-15T10:14:03.185Z,10.79
2022-09-15T10:15:05.960Z,11.68
2022-09-15T10:16:09.047Z,11.42
2022-09-15T10:17:12.017Z,9.93
2022-09-15T10:18:15.106Z,10.93
2022-09-15T10:19:17.985Z,10.52
2022-09-15T10:20:21.270Z,10.16
2022-09-15T10:21:24.654Z,11.42
2022-09-15T10:22:27.821Z,11.52
2022-09-15T10:23:30.812Z,11.92
2022-09-15T10:24:33.473Z,13.11
2022-09-15T10:25:55.492Z,11.53
2022-09-15T10:26:40.753Z,11.67
2022-09-15T10:27:49.115Z,11.28
2022-09-15T10:28:51.830Z,11.96
2022-09-15T10:29:54.714Z,12.36
2022-09-15T10:30:57.593Z,11.46
2022-09-15T10:32:00.425Z,12.46
2022-09-15T10:33:03.531Z,11.15
2022-09-15T10:34:06.335Z,10.70
2022-09-15T10:35:10.807Z,9.91
2022-09-15T10:36:13.487Z,10.36
2022-09-15T10:37:16.464Z,11.18
2022-09-15T10:38:19.543Z,10.21
2022-09-15T10:39:22.734Z,10.47
2022-09-15T10:40:25.570Z,11.69
2022-09-15T10:41:28.472Z,11.27
2022-09-15T10:42:31.558Z,10.51
2022-09-15T10:43:34.429Z,10.82
2022-09-15T10:44:37.304Z,10.93
2022-09-15T10:45:40.976Z,11.28
2022-09-15T10:46:44.080Z,11.82
2022-09-15T10:47:46.966Z,11.72
2022-09-15T10:48:49.935Z,11.93
2022-09-15T10:49:52.915Z,12.44
2022-09-15T10:50:55.673Z,12.65
2022-09-15T10:51:58.663Z,10.78
2022-09-15T10:53:01.324Z,11.47
2022-09-15T10:54:04.211Z,11.34
2022-09-15T10:55:07.292Z,11.35
2022-09-15T10:56:09.843Z,11.44
2022-09-15T10:57:12.733Z,10.59
2022-09-15T10:58:15.721Z,11.72
2022-09-15T10:59:19.198Z,11.38
2022-09-15T11:00:22.487Z,10.95
2022-09-15T11:01:25.526Z,11.00
2022-09-15T11:02:29.007Z,10.32
2022-09-15T11:03:32.116Z,10.83
2022-09-15T11:04:35.211Z,11.05
2022-09-15T11:05:38.072Z,9.56
2022-09-15T11:06:41.146Z,10.88
2022-09-15T11:07:44.442Z,11.08
2022-09-15T11:08:47.214Z,10.68
2022-09-15T11:09:50.392Z,10.62
2022-09-15T11:10:53.570Z,9.17
2022-09-15T11:11:56.549Z,9.47
2022-09-15T11:12:59.735Z,10.52
2022-09-15T11:14:02.710Z,10.08
2022-09-15T11:15:05.483Z,9.17
2022-09-15T11:16:08.367Z,9.38
2022-09-15T11:17:11.228Z,9.65
2022-09-15T11:18:15.556Z,8.75
2022-09-15T11:19:18.307Z,9.42
2022-09-15T11:20:21.485Z,9.80
2022-09-15T11:21:33.072Z,9.66
2022-09-15T11:22:36.150Z,8.46
2022-09-15T11:23:39.251Z,9.20
2022-09-15T11:24:42.617Z,10.19
2022-09-15T11:25:46.562Z,8.65
2022-09-15T11:26:49.827Z,8.40
2022-09-15T11:27:53.698Z,8.44
2022-09-15T11:28:56.883Z,8.51
2022-09-15T11:29:59.755Z,8.44
2022-09-15T11:31:02.711Z,8.23
2022-09-15T11:32:05.708Z,8.36
2022-09-15T11:33:09.008Z,8.32
2022-09-15T11:34:12.583Z,7.39
2022-09-15T11:35:15.766Z,6.73
2022-09-15T11:36:18.851Z,7.28
2022-09-15T11:37:22.639Z,7.13
2022-09-15T11:38:26.536Z,8.33
2022-09-15T11:39:30.246Z,8.35
2022-09-15T11:40:33.810Z,8.56
2022-09-15T11:41:39.170Z,7.00
2022-09-15T11:42:42.238Z,6.81
2022-09-15T11:43:45.433Z,6.86
2022-09-15T11:44:48.499Z,7.85
2022-09-15T11:45:52.399Z,8.05
2022-09-15T11:46:55.978Z,8.24
2022-09-15T11:47:58.965Z,8.22
2022-09-15T11:49:02.062Z,7.53
2022-09-15T11:50:04.922Z,8.48
2022-09-15T11:51:09.767Z,8.67
2022-09-15T11:52:12.418Z,8.67
2022-09-15T11:53:15.599Z,7.98
2022-09-15T11:54:19.186Z,8.18
2022-09-15T11:55:21.958Z,8.98
2022-09-15T11:56:24.676Z,9.22
2022-09-15T11:57:27.714Z,8.25
2022-09-15T11:58:31.517Z,7.98
2022-09-15T11:59:34.376Z,8.03
2022-09-15T12:00:37.266Z,9.94
2022-09-15T12:01:39.959Z,10.13
2022-09-15T12:02:42.868Z,9.18
2022-09-15T12:03:45.468Z,9.32
2022-09-15T12:04:48.441Z,8.88
2022-09-15T12:05:51.525Z,9.27
2022-09-15T12:06:54.679Z,10.00
2022-09-15T12:07:57.474Z,10.75
2022-09-15T12:09:00.561Z,11.42
2022-09-15T12:10:03.325Z,12.28
2022-09-15T12:11:06.101Z,14.27
2022-09-15T12:12:08.764Z,15.38
2022-09-15T12:13:11.565Z,16.86
2022-09-15T12:14:14.715Z,18.65
2022-09-15T12:15:17.698Z,19.78
2022-09-15T12:16:20.645Z,20.92
2022-09-15T12:17:23.860Z,21.35
2022-09-15T12:18:38.513Z,21.22
2022-09-15T12:19:31.345Z,23.29
2022-09-15T12:20:34.424Z,24.65
2022-09-15T12:21:37.611Z,25.20
2022-09-15T12:22:40.586Z,25.32
2022-09-15T12:23:43.560Z,27.02
2022-09-15T12:24:46.652Z,27.55
2022-09-15T12:25:49.716Z,25.51
2022-09-15T12:26:52.698Z,21.02
2022-09-15T12:27:55.675Z,28.65
2022-09-15T12:28:58.660Z,25.06
2022-09-15T12:30:02.152Z,25.18
2022-09-15T12:31:05.349Z,24.52
2022-09-15T12:32:08.101Z,23.97
2022-09-15T12:33:10.760Z,26.47
2022-09-15T12:34:13.537Z,26.27
2022-09-15T12:35:16.513Z,26.70
2022-09-15T12:36:19.610Z,27.66
2022-09-15T12:37:23.210Z,27.90
2022-09-15T12:38:26.160Z,27.84
2022-09-15T12:39:29.135Z,27.52
2022-09-15T12:40:32.205Z,29.88
2022-09-15T12:41:36.218Z,29.38
2022-09-15T12:42:38.783Z,27.22
2022-09-15T12:43:41.865Z,27.49
2022-09-15T12:44:44.639Z,28.16
2022-09-15T12:45:47.407Z,26.08
2022-09-15T12:46:50.299Z,26.53
2022-09-15T12:47:52.956Z,27.35
2022-09-15T12:48:55.622Z,26.30
2022-09-15T12:49:58.301Z,27.11
2022-09-15T12:51:01.165Z,25.18
2022-09-15T12:52:03.944Z,26.38
2022-09-15T12:53:07.026Z,23.40
2022-09-15T12:54:09.789Z,22.68
2022-09-15T12:55:12.561Z,21.82
2022-09-15T12:56:15.440Z,23.78
2022-09-15T12:57:18.416Z,23.66
2022-09-15T12:58:21.591Z,24.39
2022-09-15T12:59:24.582Z,23.25
2022-09-15T13:00:27.547Z,24.58
2022-09-15T13:01:30.270Z,25.04
2022-09-15T13:02:33.342Z,24.39
2022-09-15T13:03:36.327Z,23.39
2022-09-15T13:04:39.264Z,22.49
2022-09-15T13:05:42.435Z,22.66
2022-09-15T13:06:45.409Z,23.13
2022-09-15T13:07:48.288Z,23.32
2022-09-15T13:08:50.956Z,24.75
2022-09-15T13:09:53.932Z,23.25
2022-09-15T13:10:56.910Z,21.65
2022-09-15T13:11:59.786Z,21.45
2022-09-15T13:13:02.661Z,21.39
2022-09-15T13:14:05.435Z,20.89
2022-09-15T13:15:08.309Z,20.48
2022-09-15T13:16:11.128Z,19.90
2022-09-15T13:17:13.848Z,19.30
2022-09-15T13:18:20.003Z,18.97
2022-09-15T13:19:22.980Z,19.39
2022-09-15T13:20:25.966Z,19.35
2022-09-15T13:21:28.824Z,18.41
2022-09-15T13:22:31.806Z,16.70
2022-09-15T13:23:34.785Z,18.18
2022-09-15T13:24:37.753Z,18.88
2022-09-15T13:25:40.647Z,15.78
2022-09-15T13:26:43.918Z,15.38
2022-09-15T13:27:47.059Z,15.48
2022-09-15T13:28:52.730Z,15.47
2022-09-15T13:29:54.588Z,16.92
2022-09-15T13:30:57.820Z,17.48
2022-09-15T13:32:00.547Z,17.03
2022-09-15T13:33:03.624Z,14.78
2022-09-15T13:35:15.538Z,13.99
2022-09-15T13:36:14.913Z,14.22
2022-09-15T13:38:27.629Z,14.96
2022-09-15T13:39:26.708Z,15.83
2022-09-15T13:40:29.612Z,15.75
2022-09-15T13:41:32.694Z,16.97
2022-09-15T13:42:35.543Z,17.72
2022-09-15T13:43:41.212Z,18.55
2022-09-15T13:44:43.232Z,17.89
2022-09-15T13:45:46.251Z,15.82
2022-09-15T13:46:49.190Z,14.42
2022-09-15T13:47:53.084Z,17.29
2022-09-15T13:48:55.964Z,15.71
2022-09-15T13:49:58.633Z,15.16
2022-09-15T13:51:01.403Z,18.31
2022-09-15T13:52:04.194Z,18.80
2022-09-15T13:53:07.061Z,15.56
2022-09-15T13:54:09.923Z,15.92
2022-09-15T13:55:12.706Z,18.65
2022-09-15T13:56:15.687Z,17.77
2022-09-15T13:57:18.560Z,25.25
2022-09-15T13:59:26.482Z,47.26
2022-09-15T14:00:29.932Z,39.52
2022-09-15T14:01:32.978Z,43.55
2022-09-15T14:02:36.147Z,84.08
2022-09-15T14:03:39.191Z,34.26